Clear Creek, WV (25044)

9:48 PM EST on February 10, 2016 (GMT -0500)
Fairdale | | Change Station
CLOSE
Current Station
Personal Weather Station
Location: Lester, WV
Elevation: 1938 ft
Nearby Weather Stations

Elev 1938 ft 37.74 °N, 81.35 °W | Updated 2 seconds ago

Overcast
Overcast
13.6 °F
Feels Like 14 °F
N
0.0
Wind Variable Wind from SSW
Gusts 0.0 mph

Today
High -- | Low -- °F
--% Chance of Precip.
Yesterday
High -- | Low -- °F
Precip. -- in
Pressure 29.95 in
Visibility 1.8 miles
Clouds Mostly Cloudy 1700 ft
Overcast 4300 ft
Windchill 14 °F
Dew Point -3 °F
Humidity 46%
Rainfall 0.00 in
Snow Depth Not available.
7:21 AM 5:58 PM
Waxing Crescent, 8% visible
SPECI KBKW 110229Z AUTO 30010KT 1 3/4SM -SN BKN017 OVC043 M11/M14 A2995 RMK AO2 VIS 1/2 RWY19 P0000 T11111144
Pressure 29.95 in
Visibility 1.8 miles
Clouds Mostly Cloudy 1700 ft
Overcast 4300 ft
Windchill 14 °F
Dew Point -3 °F
Humidity 46%
Rainfall 0.00 in
Snow Depth Not available.
7:21 AM 5:58 PM
Waxing Crescent, 8% visible
SPECI KBKW 110229Z AUTO 30010KT 1 3/4SM -SN BKN017 OVC043 M11/M14 A2995 RMK AO2 VIS 1/2 RWY19 P0000 T11111144

10-Day Weather Forecast

Almanac

Astronomy

Feb. 10, 2016 Rise Set
Actual Time
Civil Twilight
Nautical Twilight
Astronomical Twilight
Moon
Length of Visible Light
Length of Day
Tomorrow will be .
, % of the Moon is Illuminated

Today's Extremes

State Highs State Lows

Community

WunderPhotos

Upload Photos

1,891,986 photos uploaded!

WunderBlog® & News

Nearby

Air Quality

  Air Quality AQ Index Pollutant
Not available.

Snow Depth

Station Depth Elevation

Earthquake Activity

City Distance Mag. Time & Date
Minimum magnitude displayed is 2.5.

Coastal Water Temperatures

Place Temperature

Stations

Nearby Weather Stations

Station Location Temp. Windchill Dew Point Humidity Wind Precip. Elev Updated Type
                   

Watches & Warnings

There are currently no watches in effect.